Hillsboro, Ohio
Current Conditions -  °F | °C
As of 5:54 PM on Tuesday 25 Nov 2014 (Local Time) from KILN Reporting Station
Clear Clear  
Wind Chill: 29°   Ceiling: Unl
Heat Index: 35°   Visibility: 10mi
Dew Point: 28°   Wind: 7mph
Humidity: 76%   Direction: 330°NNW
Pressure: 30.12"   Gusts: NA
Location:  39.2°N, 83.61°W
Report Text: KILN 252254Z AUTO 33006KT 10SM CLR 02/M02 A3012 RMK AO2 SLP225 T00171022
Loading
Personal Weather Stations






























Interactive Weather Map New forecast layout! Learn more

10-Day Weather Forecast

Advertisements
Track Severe Weather on mobile